Time;durP1;ratioP1;P1;durP2;ratioP2;P2;SDS_P1;SDS_P2;PMS_P1;PMS_P2;Temp;Humidity;BMP_temperature;BMP_pressure;BME280_temperature;BME280_humidity;BME280_pressure;Samples;Min_cycle;Max_cycle;Signal;HPM_P1;HPM_P2
2022/04/09 00:02:04;;;;;;;4.78;3.45;;;;;;;;;;10427729;28;20211;-75
2022/04/09 00:07:05;;;;;;;3.67;3.25;;;;;;;;;;10423751;28;20262;-76
2022/04/09 00:12:08;;;;;;;3.20;2.92;;;;;;;;;;10423720;28;20198;-76
2022/04/09 00:17:09;;;;;;;5.63;2.80;;;;;;;;;;10414335;28;20245;-76
2022/04/09 00:22:10;;;;;;;3.70;2.55;;;;;;;;;;10437084;28;20210;-76
2022/04/09 00:27:13;;;;;;;3.60;1.70;;;;;;;;;;10432111;28;20680;-76
2022/04/09 00:32:14;;;;;;;5.75;1.60;;;;;;;;;;10413544;28;20277;-76
2022/04/09 00:37:16;;;;;;;3.47;1.30;;;;;;;;;;10430047;28;20199;-76
2022/04/09 00:42:18;;;;;;;2.47;1.38;;;;;;;;;;10429659;28;20252;-76
2022/04/09 00:47:19;;;;;;;3.08;1.40;;;;;;;;;;10428758;28;20194;-76
2022/04/09 00:52:21;;;;;;;5.15;1.20;;;;;;;;;;10425662;28;20207;-76
2022/04/09 00:57:25;;;;;;;9.13;1.55;;;;;;;;;;10421380;28;20250;-76
2022/04/09 01:02:26;;;;;;;7.10;1.30;;;;;;;;;;10420097;28;20215;-76
2022/04/09 01:07:29;;;;;;;4.20;1.10;;;;;;;;;;10423084;28;20207;-76
2022/04/09 01:12:31;;;;;;;8.65;1.58;;;;;;;;;;10428447;28;20218;-77
2022/04/09 01:17:34;;;;;;;4.60;1.55;;;;;;;;;;10412294;28;20222;-75
2022/04/09 01:22:35;;;;;;;8.85;2.13;;;;;;;;;;10426948;28;20199;-69
2022/04/09 01:27:36;;;;;;;6.50;1.55;;;;;;;;;;10404757;28;20218;-75
2022/04/09 01:32:37;;;;;;;5.88;1.52;;;;;;;;;;10418502;28;20211;-75
2022/04/09 01:37:38;;;;;;;6.97;1.85;;;;;;;;;;10425505;28;20335;-77
2022/04/09 01:42:41;;;;;;;8.88;1.60;;;;;;;;;;10408458;28;20201;-76
2022/04/09 01:47:43;;;;;;;8.23;1.75;;;;;;;;;;10422396;28;20200;-77
2022/04/09 01:52:44;;;;;;;4.88;1.70;;;;;;;;;;10400788;28;20268;-76
2022/04/09 01:57:46;;;;;;;4.22;1.70;;;;;;;;;;10419401;28;20211;-75
2022/04/09 02:02:48;;;;;;;5.63;1.80;;;;;;;;;;10418532;28;20253;-76
2022/04/09 02:07:49;;;;;;;7.50;2.95;;;;;;;;;;10398997;28;20213;-76
2022/04/09 02:12:50;;;;;;;6.20;2.03;;;;;;;;;;10421444;28;20622;-76
2022/04/09 02:17:52;;;;;;;5.18;2.25;;;;;;;;;;10419246;28;20557;-76
2022/04/09 02:22:55;;;;;;;5.35;1.95;;;;;;;;;;10402867;28;20745;-76
2022/04/09 02:27:56;;;;;;;6.68;2.17;;;;;;;;;;10418811;28;20201;-76
2022/04/09 02:32:59;;;;;;;5.38;2.83;;;;;;;;;;10417228;28;20596;-76
2022/04/09 02:38:04;;;;;;;7.60;2.55;;;;;;;;;;10416615;28;20222;-76
2022/04/09 02:43:09;;;;;;;7.10;2.88;;;;;;;;;;10395316;28;20242;-75
2022/04/09 02:48:10;;;;;;;10.05;2.65;;;;;;;;;;10418847;28;20210;-75
2022/04/09 02:53:11;;;;;;;10.43;3.22;;;;;;;;;;10419885;28;20202;-76
2022/04/09 02:58:12;;;;;;;5.82;3.25;;;;;;;;;;10422382;28;20223;-75
2022/04/09 03:03:18;;;;;;;8.48;2.75;;;;;;;;;;10416051;28;20980;-76
2022/04/09 03:08:23;;;;;;;9.65;2.95;;;;;;;;;;10403142;28;20198;-76
2022/04/09 03:13:24;;;;;;;3.95;2.40;;;;;;;;;;10425326;28;20195;-75
2022/04/09 03:18:25;;;;;;;8.50;2.72;;;;;;;;;;10424226;28;20211;-76
2022/04/09 03:23:26;;;;;;;8.35;2.90;;;;;;;;;;10421826;28;20211;-76
2022/04/09 03:28:32;;;;;;;11.65;3.30;;;;;;;;;;10404654;28;20229;-76
2022/04/09 03:33:34;;;;;;;8.73;3.20;;;;;;;;;;10421750;28;20238;-77
2022/04/09 03:38:41;;;;;;;3.80;2.75;;;;;;;;;;10406879;28;20246;-75
2022/04/09 03:43:43;;;;;;;8.30;3.58;;;;;;;;;;10423257;28;20226;-75
2022/04/09 03:48:44;;;;;;;7.00;3.55;;;;;;;;;;10421650;28;20199;-75
2022/04/09 03:53:47;;;;;;;6.82;2.92;;;;;;;;;;10420601;28;20214;-75
2022/04/09 03:58:50;;;;;;;6.63;3.35;;;;;;;;;;10420423;28;20310;-76
2022/04/09 04:03:53;;;;;;;6.25;3.50;;;;;;;;;;10420103;28;20234;-75
2022/04/09 04:08:56;;;;;;;8.63;3.70;;;;;;;;;;10398632;28;20230;-75
2022/04/09 04:13:58;;;;;;;9.93;4.18;;;;;;;;;;10407743;28;20222;-76
2022/04/09 04:19:00;;;;;;;8.65;4.00;;;;;;;;;;10386882;28;20207;-76
2022/04/09 04:24:02;;;;;;;11.35;4.60;;;;;;;;;;10402458;28;21059;-76
2022/04/09 04:29:03;;;;;;;11.07;4.88;;;;;;;;;;10416790;28;20218;-76
2022/04/09 04:34:06;;;;;;;9.57;5.00;;;;;;;;;;10410736;28;20235;-76
2022/04/09 04:39:13;;;;;;;12.05;4.05;;;;;;;;;;10417254;28;20223;-76
2022/04/09 04:44:17;;;;;;;7.47;4.03;;;;;;;;;;10416311;28;20598;-76
2022/04/09 04:49:22;;;;;;;6.43;4.32;;;;;;;;;;10401126;28;20210;-77
2022/04/09 04:54:27;;;;;;;4.75;4.38;;;;;;;;;;10406742;28;20710;-77
2022/04/09 04:59:28;;;;;;;5.03;3.72;;;;;;;;;;10415873;28;20204;-76
2022/04/09 05:04:30;;;;;;;8.07;4.22;;;;;;;;;;10400206;28;20916;-76
2022/04/09 05:09:35;;;;;;;8.77;4.28;;;;;;;;;;10424231;28;20214;-78
2022/04/09 05:14:37;;;;;;;4.80;3.95;;;;;;;;;;10413257;28;20217;-75
2022/04/09 05:19:43;;;;;;;7.70;4.45;;;;;;;;;;10424978;28;20203;-76
2022/04/09 05:24:47;;;;;;;8.55;3.95;;;;;;;;;;10404990;28;20183;-76
2022/04/09 05:29:50;;;;;;;10.90;4.85;;;;;;;;;;10423022;28;20325;-77
2022/04/09 05:34:53;;;;;;;8.88;4.80;;;;;;;;;;10422626;28;20603;-77
2022/04/09 05:39:56;;;;;;;7.65;4.10;;;;;;;;;;10406808;28;20345;-76
2022/04/09 05:44:57;;;;;;;8.43;4.07;;;;;;;;;;10421430;28;20199;-75
2022/04/09 05:50:03;;;;;;;6.97;3.90;;;;;;;;;;10406900;28;20197;-76
2022/04/09 05:55:06;;;;;;;9.35;4.10;;;;;;;;;;10401607;28;20212;-77
2022/04/09 06:00:10;;;;;;;10.73;3.83;;;;;;;;;;10418033;28;20264;-78
2022/04/09 06:05:17;;;;;;;8.77;3.10;;;;;;;;;;10424424;28;20302;-74
2022/04/09 06:10:22;;;;;;;8.52;3.85;;;;;;;;;;10407856;28;20209;-77
2022/04/09 06:15:24;;;;;;;8.18;3.58;;;;;;;;;;10404843;28;20359;-78
2022/04/09 06:20:28;;;;;;;4.03;3.65;;;;;;;;;;10416679;28;20216;-77
2022/04/09 06:25:30;;;;;;;7.25;3.70;;;;;;;;;;10402847;28;20191;-79
2022/04/09 06:30:31;;;;;;;4.65;3.50;;;;;;;;;;10422928;28;20207;-78
2022/04/09 06:35:41;;;;;;;3.97;2.45;;;;;;;;;;10411242;28;20222;-77
2022/04/09 06:40:48;;;;;;;7.28;3.15;;;;;;;;;;10418747;28;20294;-78
2022/04/09 06:45:53;;;;;;;5.03;2.50;;;;;;;;;;10404746;28;20298;-78
2022/04/09 06:51:08;;;;;;;2.97;1.98;;;;;;;;;;10421431;28;20260;-77
2022/04/09 06:56:10;;;;;;;7.25;2.10;;;;;;;;;;10404260;28;20571;-77
2022/04/09 07:01:11;;;;;;;2.40;1.77;;;;;;;;;;10401901;28;20219;-79
2022/04/09 07:06:16;;;;;;;6.30;1.98;;;;;;;;;;10402396;28;20194;-80
2022/04/09 07:11:17;;;;;;;5.05;1.80;;;;;;;;;;10420251;28;20202;-77
2022/04/09 07:16:18;;;;;;;7.03;1.80;;;;;;;;;;10415243;28;20564;-75
2022/04/09 07:21:20;;;;;;;2.30;2.10;;;;;;;;;;10417572;28;20782;-78
2022/04/09 07:26:21;;;;;;;6.28;2.50;;;;;;;;;;10418977;28;20210;-78
2022/04/09 07:31:22;;;;;;;4.88;1.80;;;;;;;;;;10414255;28;20257;-78
2022/04/09 07:36:23;;;;;;;8.30;2.05;;;;;;;;;;10413025;28;20217;-77
2022/04/09 07:41:24;;;;;;;7.55;1.40;;;;;;;;;;10416723;28;20218;-76
2022/04/09 07:46:25;;;;;;;3.30;1.17;;;;;;;;;;10416955;28;20297;-77
2022/04/09 07:51:26;;;;;;;4.35;1.70;;;;;;;;;;10421272;28;20827;-76
2022/04/09 07:56:27;;;;;;;2.75;1.38;;;;;;;;;;10418512;28;20251;-76
2022/04/09 08:01:28;;;;;;;5.75;1.23;;;;;;;;;;10452907;28;20210;-76
2022/04/09 08:06:29;;;;;;;4.57;1.30;;;;;;;;;;10459816;28;20222;-76
2022/04/09 08:11:31;;;;;;;6.90;1.27;;;;;;;;;;10455166;28;20656;-77
2022/04/09 08:16:32;;;;;;;12.82;1.80;;;;;;;;;;10450425;28;20402;-74
2022/04/09 08:21:33;;;;;;;2.58;0.95;;;;;;;;;;10459930;28;20198;-77
2022/04/09 08:26:34;;;;;;;7.78;1.20;;;;;;;;;;10451054;28;20209;-76
2022/04/09 08:31:35;;;;;;;4.63;1.00;;;;;;;;;;10463326;28;20218;-76
2022/04/09 08:36:36;;;;;;;3.30;0.95;;;;;;;;;;10461203;28;20631;-78
2022/04/09 08:41:40;;;;;;;3.67;0.77;;;;;;;;;;10466377;28;20238;-77
2022/04/09 08:46:41;;;;;;;2.97;0.88;;;;;;;;;;10466820;28;20198;-78
2022/04/09 08:51:42;;;;;;;5.57;1.08;;;;;;;;;;10469514;28;20206;-77
2022/04/09 08:56:43;;;;;;;4.57;0.88;;;;;;;;;;10399958;28;20227;-76
2022/04/09 09:01:45;;;;;;;2.17;1.20;;;;;;;;;;10381873;28;20215;-75
2022/04/09 09:06:46;;;;;;;1.33;0.80;;;;;;;;;;10376177;28;20203;-74
2022/04/09 09:11:48;;;;;;;3.08;0.77;;;;;;;;;;10382633;28;20689;-76
2022/04/09 09:16:49;;;;;;;3.00;0.70;;;;;;;;;;10379470;28;20250;-77
2022/04/09 09:21:56;;;;;;;2.30;0.70;;;;;;;;;;10380615;28;20204;-78
2022/04/09 09:26:59;;;;;;;3.63;0.73;;;;;;;;;;10382191;28;20855;-79
2022/04/09 09:32:00;;;;;;;5.13;0.88;;;;;;;;;;10383463;28;20726;-75
2022/04/09 09:37:01;;;;;;;4.50;0.70;;;;;;;;;;10383082;28;20208;-76
2022/04/09 09:42:03;;;;;;;1.30;0.60;;;;;;;;;;10388534;28;20306;-78
2022/04/09 09:47:08;;;;;;;3.65;0.80;;;;;;;;;;10381476;28;20798;-78
2022/04/09 09:52:10;;;;;;;3.58;0.70;;;;;;;;;;10379303;28;20211;-78
2022/04/09 09:57:20;;;;;;;2.72;0.68;;;;;;;;;;10411723;28;20245;-75
2022/04/09 10:02:22;;;;;;;2.63;0.60;;;;;;;;;;10419052;28;20224;-77
2022/04/09 10:07:24;;;;;;;0.60;0.60;;;;;;;;;;10428091;28;20203;-82
2022/04/09 10:12:25;;;;;;;1.13;0.40;;;;;;;;;;10420557;28;20211;-76
2022/04/09 10:17:30;;;;;;;2.33;0.50;;;;;;;;;;10386362;28;20214;-77
2022/04/09 10:22:35;;;;;;;3.78;0.60;;;;;;;;;;10422997;28;20265;-79
2022/04/09 10:27:38;;;;;;;1.63;0.50;;;;;;;;;;10418959;28;20195;-78
2022/04/09 10:32:46;;;;;;;5.18;1.00;;;;;;;;;;10418301;28;20219;-80
2022/04/09 10:38:06;;;;;;;0.82;0.50;;;;;;;;;;10423316;28;20215;-77
2022/04/09 10:43:07;;;;;;;2.00;0.60;;;;;;;;;;10412904;28;20199;-78
2022/04/09 10:48:12;;;;;;;2.28;0.70;;;;;;;;;;10417710;28;20204;-77
2022/04/09 10:53:14;;;;;;;2.30;0.93;;;;;;;;;;10422520;28;20203;-78
2022/04/09 10:58:15;;;;;;;1.17;0.90;;;;;;;;;;10424318;28;20214;-82
2022/04/09 11:03:29;;;;;;;1.42;0.95;;;;;;;;;;10411783;28;20306;-76
2022/04/09 11:08:31;;;;;;;3.92;1.00;;;;;;;;;;10424571;28;20215;-80
2022/04/09 11:13:32;;;;;;;1.13;0.65;;;;;;;;;;10424767;28;20200;-78
2022/04/09 11:18:41;;;;;;;1.58;0.57;;;;;;;;;;10423096;28;20214;-79
2022/04/09 11:23:44;;;;;;;0.55;0.50;;;;;;;;;;10422906;28;20983;-77
2022/04/09 11:28:45;;;;;;;1.95;0.52;;;;;;;;;;10424858;28;20213;-78
2022/04/09 11:33:57;;;;;;;2.30;0.60;;;;;;;;;;10417882;28;20222;-81
2022/04/09 11:38:58;;;;;;;0.95;0.45;;;;;;;;;;10423130;28;20206;-79
2022/04/09 11:44:00;;;;;;;1.58;1.00;;;;;;;;;;10418968;28;20257;-77
2022/04/09 11:49:01;;;;;;;3.03;0.60;;;;;;;;;;10420590;28;20230;-71
2022/04/09 11:54:15;;;;;;;2.35;0.52;;;;;;;;;;10416710;28;20739;-77
2022/04/09 11:59:16;;;;;;;4.90;0.80;;;;;;;;;;10381056;28;21282;-80
2022/04/09 12:04:18;;;;;;;0.95;0.70;;;;;;;;;;10372809;28;20219;-79
2022/04/09 12:09:21;;;;;;;0.50;0.50;;;;;;;;;;10380695;28;20214;-80
2022/04/09 12:14:24;;;;;;;2.28;0.32;;;;;;;;;;10375531;28;20210;-81
2022/04/09 12:19:29;;;;;;;0.70;0.50;;;;;;;;;;10371757;28;20293;-80
2022/04/09 12:24:30;;;;;;;1.63;0.57;;;;;;;;;;10370252;28;20306;-82
2022/04/09 12:29:33;;;;;;;0.90;0.65;;;;;;;;;;10382107;28;20215;-80
2022/04/09 12:34:50;;;;;;;1.38;0.60;;;;;;;;;;10396912;28;20216;-80
2022/04/09 12:39:52;;;;;;;0.93;0.52;;;;;;;;;;10381164;28;20295;-75
2022/04/09 12:45:08;;;;;;;0.30;0.30;;;;;;;;;;10365955;28;20208;-80
2022/04/09 12:50:19;;;;;;;0.57;0.35;;;;;;;;;;10386084;28;20202;-84
2022/04/09 12:55:21;;;;;;;0.30;0.30;;;;;;;;;;10399944;28;20230;-79
2022/04/09 13:00:23;;;;;;;0.70;0.70;;;;;;;;;;10432523;28;20296;-85
2022/04/09 13:05:24;;;;;;;2.03;0.63;;;;;;;;;;10438576;28;20275;-83
2022/04/09 13:10:25;;;;;;;1.27;0.30;;;;;;;;;;10433842;28;20211;-82
2022/04/09 13:15:26;;;;;;;0.32;0.28;;;;;;;;;;10432225;28;20257;-81
2022/04/09 13:20:27;;;;;;;0.25;0.25;;;;;;;;;;10431448;28;20206;-79
2022/04/09 13:25:28;;;;;;;0.57;0.28;;;;;;;;;;10437110;28;21607;-88
2022/04/09 13:30:31;;;;;;;0.95;0.20;;;;;;;;;;10438584;28;20209;-82
2022/04/09 13:35:34;;;;;;;0.30;0.30;;;;;;;;;;10431759;28;20301;-81
2022/04/09 13:40:35;;;;;;;0.95;0.43;;;;;;;;;;10431987;28;20200;-88
2022/04/09 13:45:36;;;;;;;1.02;0.20;;;;;;;;;;10428901;28;20740;-83
2022/04/09 13:50:37;;;;;;;1.27;0.30;;;;;;;;;;10430319;28;20211;-78
2022/04/09 13:55:41;;;;;;;0.40;0.35;;;;;;;;;;10424959;28;20230;-81
2022/04/09 14:00:42;;;;;;;0.85;0.40;;;;;;;;;;10428260;28;20221;-78
2022/04/09 14:05:43;;;;;;;0.38;0.20;;;;;;;;;;10429503;28;20218;-82
2022/04/09 14:10:44;;;;;;;0.28;0.28;;;;;;;;;;10444465;28;20266;-85
2022/04/09 14:15:45;;;;;;;0.63;0.40;;;;;;;;;;10420979;28;20245;-86
2022/04/09 14:20:46;;;;;;;0.25;0.25;;;;;;;;;;10449987;28;20202;-88
2022/04/09 14:25:47;;;;;;;0.93;0.20;;;;;;;;;;10440701;28;20201;-87
2022/04/09 14:30:48;;;;;;;1.45;0.20;;;;;;;;;;10445935;28;20793;-84
2022/04/09 14:35:50;;;;;;;0.28;0.10;;;;;;;;;;10431477;28;20210;-81
2022/04/09 14:40:51;;;;;;;0.20;0.20;;;;;;;;;;10422982;28;20222;-70
2022/04/09 14:45:52;;;;;;;1.10;0.13;;;;;;;;;;10414331;28;20199;-80
2022/04/09 14:50:53;;;;;;;0.30;0.10;;;;;;;;;;10422502;28;20283;-77
2022/04/09 14:55:54;;;;;;;0.50;0.20;;;;;;;;;;10400604;28;20231;-81
2022/04/09 15:00:55;;;;;;;3.17;0.40;;;;;;;;;;10423368;28;20214;-80
2022/04/09 15:05:59;;;;;;;1.10;0.30;;;;;;;;;;10419119;28;20217;-80
2022/04/09 15:11:01;;;;;;;1.08;0.30;;;;;;;;;;10417913;28;20226;-79
2022/04/09 15:16:02;;;;;;;2.30;0.40;;;;;;;;;;10421535;28;20226;-80
2022/04/09 15:21:03;;;;;;;0.35;0.35;;;;;;;;;;10418034;28;20195;-80
2022/04/09 15:26:04;;;;;;;3.92;0.50;;;;;;;;;;10421368;28;20698;-80
2022/04/09 15:31:06;;;;;;;1.00;0.40;;;;;;;;;;10421757;28;20784;-78
2022/04/09 15:36:07;;;;;;;0.52;0.30;;;;;;;;;;10424184;28;20218;-81
2022/04/09 15:41:08;;;;;;;0.65;0.32;;;;;;;;;;10412156;28;20206;-79
2022/04/09 15:46:09;;;;;;;1.75;0.30;;;;;;;;;;10397792;28;20674;-78
2022/04/09 15:51:10;;;;;;;0.30;0.30;;;;;;;;;;10409366;28;20206;-79
2022/04/09 15:56:13;;;;;;;0.20;0.20;;;;;;;;;;10414069;28;20353;-79
2022/04/09 16:01:15;;;;;;;0.10;0.10;;;;;;;;;;10416037;28;20211;-81
2022/04/09 16:06:16;;;;;;;0.50;0.20;;;;;;;;;;10421098;28;20272;-79
2022/04/09 16:11:17;;;;;;;1.17;0.28;;;;;;;;;;10408128;28;20555;-81
2022/04/09 16:16:18;;;;;;;0.80;0.25;;;;;;;;;;10416801;28;20309;-79
2022/04/09 16:21:20;;;;;;;1.30;0.93;;;;;;;;;;10421519;28;20290;-81
2022/04/09 16:26:22;;;;;;;0.85;0.28;;;;;;;;;;10406752;28;20203;-80
2022/04/09 16:31:24;;;;;;;1.83;0.38;;;;;;;;;;10430124;28;21490;-81
2022/04/09 16:36:25;;;;;;;0.30;0.30;;;;;;;;;;10428935;28;20225;-83
2022/04/09 16:41:26;;;;;;;0.95;0.40;;;;;;;;;;10426728;28;20286;-83
2022/04/09 16:46:28;;;;;;;0.38;0.38;;;;;;;;;;10427496;28;20199;-84
2022/04/09 16:51:29;;;;;;;0.60;0.60;;;;;;;;;;10424645;28;20207;-81
2022/04/09 16:56:30;;;;;;;0.55;0.40;;;;;;;;;;10428250;28;20234;-84
2022/04/09 17:01:32;;;;;;;1.90;0.85;;;;;;;;;;10427371;28;20271;-80
2022/04/09 17:06:33;;;;;;;2.75;0.65;;;;;;;;;;10436946;28;20207;-81
2022/04/09 17:11:34;;;;;;;1.55;0.52;;;;;;;;;;10433468;28;20222;-81
2022/04/09 17:16:35;;;;;;;0.60;0.60;;;;;;;;;;10431531;28;20733;-80
2022/04/09 17:21:36;;;;;;;1.98;0.70;;;;;;;;;;10406050;28;20208;-91
2022/04/09 17:26:37;;;;;;;2.85;0.50;;;;;;;;;;10424532;28;20196;-78
2022/04/09 17:31:38;;;;;;;2.42;0.70;;;;;;;;;;10419841;28;20230;-88
2022/04/09 17:36:40;;;;;;;0.77;0.50;;;;;;;;;;10424576;28;20221;-88
2022/04/09 17:41:41;;;;;;;0.73;0.60;;;;;;;;;;10438229;28;20203;-84
2022/04/09 17:46:42;;;;;;;1.65;0.50;;;;;;;;;;10428375;28;20289;-75
2022/04/09 17:51:43;;;;;;;3.75;0.55;;;;;;;;;;10398563;28;21040;-76
2022/04/09 17:56:44;;;;;;;2.28;0.57;;;;;;;;;;10419686;28;20287;-82
2022/04/09 18:01:45;;;;;;;0.80;0.40;;;;;;;;;;10424351;28;20218;-81
2022/04/09 18:06:47;;;;;;;4.20;0.50;;;;;;;;;;10436731;28;20195;-82
2022/04/09 18:11:48;;;;;;;3.33;0.65;;;;;;;;;;10435625;28;20229;-83
2022/04/09 18:16:49;;;;;;;4.35;1.00;;;;;;;;;;10429507;28;21047;-82
2022/04/09 18:21:51;;;;;;;2.72;0.63;;;;;;;;;;10433512;28;21073;-81
2022/04/09 18:26:52;;;;;;;1.20;0.95;;;;;;;;;;10431691;28;20211;-81
2022/04/09 18:31:53;;;;;;;3.58;0.70;;;;;;;;;;10405618;28;20226;-81
2022/04/09 18:36:54;;;;;;;1.20;0.75;;;;;;;;;;10429475;28;20211;-81
2022/04/09 18:41:55;;;;;;;0.95;0.82;;;;;;;;;;10426204;28;20195;-81
2022/04/09 18:46:57;;;;;;;3.42;0.70;;;;;;;;;;10425272;28;20222;-77
2022/04/09 18:51:58;;;;;;;2.72;1.50;;;;;;;;;;10428303;28;20200;-82
2022/04/09 18:57:00;;;;;;;3.60;1.50;;;;;;;;;;10433437;28;20285;-82
2022/04/09 19:02:01;;;;;;;1.42;0.88;;;;;;;;;;10423808;28;20214;-81
2022/04/09 19:07:03;;;;;;;0.75;0.60;;;;;;;;;;10424849;28;20199;-82
2022/04/09 19:12:05;;;;;;;3.33;1.40;;;;;;;;;;10429783;28;20210;-81
2022/04/09 19:17:07;;;;;;;2.72;1.55;;;;;;;;;;10430920;28;20218;-81
2022/04/09 19:22:08;;;;;;;4.60;1.77;;;;;;;;;;10421521;28;20768;-82
2022/04/09 19:27:09;;;;;;;2.22;2.03;;;;;;;;;;10427600;28;20209;-82
2022/04/09 19:32:11;;;;;;;3.78;2.83;;;;;;;;;;10427371;28;20229;-82
2022/04/09 19:37:12;;;;;;;7.20;3.03;;;;;;;;;;10422025;28;20235;-81
2022/04/09 19:42:13;;;;;;;7.00;4.10;;;;;;;;;;10421205;28;20191;-81
2022/04/09 19:47:14;;;;;;;3.95;2.42;;;;;;;;;;10417400;28;20206;-81
2022/04/09 19:52:18;;;;;;;4.15;1.95;;;;;;;;;;10430226;28;20207;-81
2022/04/09 19:57:19;;;;;;;2.33;1.67;;;;;;;;;;10430370;28;20229;-81
2022/04/09 20:02:23;;;;;;;3.10;2.30;;;;;;;;;;10423092;28;20225;-80
2022/04/09 20:07:24;;;;;;;3.08;1.75;;;;;;;;;;10429195;28;20286;-81
2022/04/09 20:12:26;;;;;;;1.58;1.50;;;;;;;;;;10423978;28;20211;-80
2022/04/09 20:17:27;;;;;;;2.22;2.13;;;;;;;;;;10425757;28;20299;-80
2022/04/09 20:22:29;;;;;;;3.10;1.80;;;;;;;;;;10424048;28;20202;-81
2022/04/09 20:27:30;;;;;;;4.22;1.48;;;;;;;;;;10427268;28;20199;-80
2022/04/09 20:32:31;;;;;;;0.98;0.98;;;;;;;;;;10426704;28;20215;-80
2022/04/09 20:37:33;;;;;;;1.92;1.42;;;;;;;;;;10436698;28;20241;-81
2022/04/09 20:42:34;;;;;;;1.48;1.33;;;;;;;;;;10431189;28;20711;-80
2022/04/09 20:47:35;;;;;;;1.83;1.65;;;;;;;;;;10428200;28;20215;-82
2022/04/09 20:52:36;;;;;;;3.40;2.97;;;;;;;;;;10429992;28;20284;-82
2022/04/09 20:57:37;;;;;;;2.70;2.60;;;;;;;;;;10431369;28;20323;-80
2022/04/09 21:02:38;;;;;;;2.67;2.47;;;;;;;;;;10428963;28;20279;-80
2022/04/09 21:07:39;;;;;;;3.13;3.03;;;;;;;;;;10431672;28;21051;-83
2022/04/09 21:12:40;;;;;;;3.05;2.70;;;;;;;;;;10428540;28;20207;-81
2022/04/09 21:17:41;;;;;;;2.80;2.65;;;;;;;;;;10438325;28;20203;-82
2022/04/09 21:22:42;;;;;;;2.25;2.13;;;;;;;;;;10430602;28;20686;-82
2022/04/09 21:27:43;;;;;;;2.78;2.67;;;;;;;;;;10431560;28;20296;-81
2022/04/09 21:32:45;;;;;;;2.28;2.13;;;;;;;;;;10434683;28;20233;-80
2022/04/09 21:37:46;;;;;;;3.35;3.25;;;;;;;;;;10434762;28;20349;-79
2022/04/09 21:42:47;;;;;;;3.20;3.13;;;;;;;;;;10431445;28;20200;-78
2022/04/09 21:47:48;;;;;;;2.92;2.83;;;;;;;;;;10431997;28;20207;-81
2022/04/09 21:52:49;;;;;;;2.00;1.90;;;;;;;;;;10431711;28;20639;-80
2022/04/09 21:57:50;;;;;;;2.38;1.85;;;;;;;;;;10431220;28;20241;-81
2022/04/09 22:02:52;;;;;;;2.60;1.95;;;;;;;;;;10427640;28;20695;-81
2022/04/09 22:07:53;;;;;;;1.38;1.38;;;;;;;;;;10432007;28;20195;-81
2022/04/09 22:12:54;;;;;;;2.53;1.40;;;;;;;;;;10427585;28;20214;-81
2022/04/09 22:17:56;;;;;;;2.35;2.08;;;;;;;;;;10423870;28;20305;-81
2022/04/09 22:22:57;;;;;;;2.42;1.42;;;;;;;;;;10426795;28;20195;-82
2022/04/09 22:27:58;;;;;;;1.52;1.42;;;;;;;;;;10426486;28;20222;-81
2022/04/09 22:32:59;;;;;;;1.35;1.35;;;;;;;;;;10437931;28;20219;-81
2022/04/09 22:38:00;;;;;;;1.90;1.90;;;;;;;;;;10427850;28;20211;-81
2022/04/09 22:43:02;;;;;;;2.83;2.67;;;;;;;;;;10413243;28;20198;-80
2022/04/09 22:48:03;;;;;;;2.88;2.78;;;;;;;;;;10432842;28;20207;-81
2022/04/09 22:53:04;;;;;;;3.45;2.80;;;;;;;;;;10434664;28;20726;-80
2022/04/09 22:58:05;;;;;;;3.15;3.05;;;;;;;;;;10426039;28;20215;-80
2022/04/09 23:03:06;;;;;;;3.30;3.10;;;;;;;;;;10429426;28;20255;-81
2022/04/09 23:08:07;;;;;;;2.78;2.67;;;;;;;;;;10425809;28;20199;-81
2022/04/09 23:13:08;;;;;;;4.15;2.75;;;;;;;;;;10424633;28;20679;-80
2022/04/09 23:18:09;;;;;;;4.30;3.55;;;;;;;;;;10428414;28;20217;-80
2022/04/09 23:23:10;;;;;;;2.70;2.60;;;;;;;;;;10423862;28;20187;-80
2022/04/09 23:28:12;;;;;;;3.45;3.28;;;;;;;;;;10431399;28;20229;-81
2022/04/09 23:33:13;;;;;;;4.95;3.00;;;;;;;;;;10428703;28;20657;-80
2022/04/09 23:38:14;;;;;;;4.00;3.80;;;;;;;;;;10421908;28;20213;-82
2022/04/09 23:43:15;;;;;;;4.13;3.58;;;;;;;;;;10425203;28;20198;-80
2022/04/09 23:48:16;;;;;;;3.80;2.80;;;;;;;;;;10426818;28;20349;-81
2022/04/09 23:53:17;;;;;;;3.88;3.20;;;;;;;;;;10421959;28;20949;-80
2022/04/09 23:58:18;;;;;;;3.20;3.00;;;;;;;;;;10422413;28;20230;-80
